Time;durP1;ratioP1;P1;durP2;ratioP2;P2;SDS_P1;SDS_P2;PMS_P1;PMS_P2;Temp;Humidity;BMP_temperature;BMP_pressure;BME280_temperature;BME280_humidity;BME280_pressure;Samples;Min_cycle;Max_cycle;Signal;HPM_P1;HPM_P2
2022/08/27 00:00:14;;;;;;;7.93;1.83;;;;;;;;;;5030151;28;20736;-15
2022/08/27 00:02:42;;;;;;;6.35;1.75;;;;;;;;;;5030435;28;20246;-16
2022/08/27 00:05:11;;;;;;;3.92;1.75;;;;;;;;;;5030305;28;21478;-15
2022/08/27 00:07:38;;;;;;;5.85;1.70;;;;;;;;;;5029709;28;20987;-16
2022/08/27 00:10:06;;;;;;;7.15;1.75;;;;;;;;;;5030491;28;20332;-16
2022/08/27 00:12:34;;;;;;;4.32;1.80;;;;;;;;;;5029604;28;20791;-16
2022/08/27 00:15:02;;;;;;;6.00;1.70;;;;;;;;;;5030985;28;20238;-16
2022/08/27 00:17:29;;;;;;;4.18;1.58;;;;;;;;;;5029417;28;20709;-15
2022/08/27 00:19:56;;;;;;;5.50;1.70;;;;;;;;;;5021839;28;20238;-15
2022/08/27 00:22:25;;;;;;;6.20;1.67;;;;;;;;;;5030510;28;20247;-16
2022/08/27 00:24:52;;;;;;;3.80;1.67;;;;;;;;;;5030068;28;20858;-15
2022/08/27 00:27:20;;;;;;;3.55;1.75;;;;;;;;;;5030475;28;20238;-16
2022/08/27 00:29:47;;;;;;;4.45;1.55;;;;;;;;;;5028985;28;21084;-16
2022/08/27 00:32:15;;;;;;;11.10;1.85;;;;;;;;;;5030351;28;20227;-15
2022/08/27 00:34:42;;;;;;;4.03;1.77;;;;;;;;;;5028321;28;20223;-16
2022/08/27 00:37:09;;;;;;;4.40;1.70;;;;;;;;;;5030195;28;20234;-16
2022/08/27 00:39:38;;;;;;;3.33;1.40;;;;;;;;;;5027239;28;20239;-16
2022/08/27 00:42:06;;;;;;;5.30;2.00;;;;;;;;;;5030302;28;20238;-16
2022/08/27 00:44:33;;;;;;;4.35;1.63;;;;;;;;;;5021297;28;20717;-17
2022/08/27 00:47:01;;;;;;;5.47;1.85;;;;;;;;;;5026439;28;20801;-15
2022/08/27 00:49:31;;;;;;;3.55;1.50;;;;;;;;;;5026217;28;20235;-15
2022/08/27 00:52:00;;;;;;;4.82;1.50;;;;;;;;;;5039373;28;20960;-16
2022/08/27 00:54:27;;;;;;;3.03;1.40;;;;;;;;;;5029736;28;20237;-16
2022/08/27 00:56:57;;;;;;;5.20;1.92;;;;;;;;;;5030221;28;20282;-16
2022/08/27 00:59:27;;;;;;;7.78;1.60;;;;;;;;;;5024580;28;20276;-16
2022/08/27 01:04:40;;;;;;;6.22;1.60;;;;;;;;;;5029545;28;20732;-16
2022/08/27 01:07:08;;;;;;;4.05;1.70;;;;;;;;;;5031496;28;20231;-16
2022/08/27 01:09:35;;;;;;;4.43;1.50;;;;;;;;;;5032745;28;20234;-16
2022/08/27 01:12:04;;;;;;;3.25;1.60;;;;;;;;;;5032423;28;20733;-16
2022/08/27 01:14:31;;;;;;;5.28;1.88;;;;;;;;;;5030205;28;20231;-16
2022/08/27 01:16:59;;;;;;;4.60;1.75;;;;;;;;;;5034809;28;20246;-15
2022/08/27 01:19:34;;;;;;;5.07;1.88;;;;;;;;;;5032880;28;20233;-16
2022/08/27 01:22:03;;;;;;;3.92;1.20;;;;;;;;;;5032434;28;20249;-16
2022/08/27 01:24:33;;;;;;;4.10;1.75;;;;;;;;;;5022788;28;20241;-16
2022/08/27 01:27:00;;;;;;;6.32;1.80;;;;;;;;;;5032544;28;20226;-16
2022/08/27 01:29:28;;;;;;;3.95;1.77;;;;;;;;;;5022402;28;20242;-16
2022/08/27 01:31:56;;;;;;;3.00;1.67;;;;;;;;;;5032875;28;20235;-15
2022/08/27 01:34:24;;;;;;;4.20;1.60;;;;;;;;;;5028965;28;20227;-16
2022/08/27 01:36:51;;;;;;;4.85;1.77;;;;;;;;;;5033074;28;20230;-16
2022/08/27 01:39:23;;;;;;;5.57;1.85;;;;;;;;;;5018841;28;20232;-15
2022/08/27 01:41:52;;;;;;;4.93;1.75;;;;;;;;;;5032862;28;20235;-16
2022/08/27 01:44:20;;;;;;;4.15;1.63;;;;;;;;;;5029221;28;20620;-16
2022/08/27 01:46:47;;;;;;;4.93;1.63;;;;;;;;;;5032317;28;20699;-16
2022/08/27 01:49:15;;;;;;;4.25;1.40;;;;;;;;;;5030354;28;20246;-16
2022/08/27 01:51:42;;;;;;;4.68;1.88;;;;;;;;;;5032098;28;20242;-15
2022/08/27 01:54:10;;;;;;;6.85;1.95;;;;;;;;;;5028244;28;20229;-16
2022/08/27 01:56:37;;;;;;;4.40;1.77;;;;;;;;;;5042971;28;20240;-15
2022/08/27 01:59:06;;;;;;;3.60;1.77;;;;;;;;;;5027610;28;20238;-16
2022/08/27 02:01:34;;;;;;;6.00;1.90;;;;;;;;;;5032747;28;20227;-16
2022/08/27 02:04:01;;;;;;;4.13;1.83;;;;;;;;;;5021634;28;20253;-16
2022/08/27 02:06:29;;;;;;;4.88;1.85;;;;;;;;;;5031447;28;20318;-16
2022/08/27 02:08:56;;;;;;;3.35;1.60;;;;;;;;;;5032190;28;20253;-16
2022/08/27 02:11:23;;;;;;;5.32;1.80;;;;;;;;;;5032405;28;20234;-16
2022/08/27 02:13:51;;;;;;;6.32;2.17;;;;;;;;;;5031355;28;20230;-16
2022/08/27 02:16:20;;;;;;;4.28;1.88;;;;;;;;;;5031725;28;20718;-16
2022/08/27 02:18:48;;;;;;;3.00;1.45;;;;;;;;;;5032306;28;20245;-16
2022/08/27 02:21:16;;;;;;;3.28;2.00;;;;;;;;;;5051671;22;20293;-12
2022/08/27 02:23:44;;;;;;;3.03;1.83;;;;;;;;;;5049392;28;20698;-12
2022/08/27 02:26:11;;;;;;;3.60;1.83;;;;;;;;;;5052910;28;20772;-12
2022/08/27 02:28:39;;;;;;;2.67;1.77;;;;;;;;;;5048111;28;20642;-12
2022/08/27 02:31:07;;;;;;;3.30;1.75;;;;;;;;;;5043550;28;20241;-12
2022/08/27 02:33:36;;;;;;;4.47;2.00;;;;;;;;;;5040239;28;20285;-12
2022/08/27 02:36:03;;;;;;;3.08;1.63;;;;;;;;;;5038966;28;20242;-12
2022/08/27 02:38:32;;;;;;;3.85;1.60;;;;;;;;;;5049231;28;20258;-12
2022/08/27 02:40:59;;;;;;;2.10;1.42;;;;;;;;;;5047699;28;20222;-12
2022/08/27 02:43:27;;;;;;;4.15;1.70;;;;;;;;;;5043284;28;20241;-12
2022/08/27 02:45:54;;;;;;;5.13;1.83;;;;;;;;;;5050303;28;20261;-12
2022/08/27 02:48:23;;;;;;;5.15;1.70;;;;;;;;;;5047729;28;20238;-12
2022/08/27 02:50:52;;;;;;;4.43;1.70;;;;;;;;;;5044068;28;20226;-12
2022/08/27 02:53:19;;;;;;;2.58;1.65;;;;;;;;;;5049357;28;20236;-12
2022/08/27 02:55:46;;;;;;;5.75;1.65;;;;;;;;;;5051104;28;20234;-12
2022/08/27 02:58:15;;;;;;;4.30;1.85;;;;;;;;;;5048516;28;20272;-12
2022/08/27 03:00:43;;;;;;;2.30;1.60;;;;;;;;;;5051081;28;20728;-12
2022/08/27 03:03:10;;;;;;;5.05;1.85;;;;;;;;;;5050179;28;20230;-12
2022/08/27 03:05:37;;;;;;;3.67;1.70;;;;;;;;;;5050661;28;20226;-12
2022/08/27 03:08:06;;;;;;;4.00;1.92;;;;;;;;;;5046350;28;20235;-12
2022/08/27 03:10:34;;;;;;;2.58;1.77;;;;;;;;;;5051678;28;20234;-12
2022/08/27 03:13:01;;;;;;;4.00;1.48;;;;;;;;;;5045622;28;20234;-12
2022/08/27 03:15:29;;;;;;;4.45;2.08;;;;;;;;;;5050292;28;20325;-12
2022/08/27 03:20:43;;;;;;;4.63;1.90;;;;;;;;;;5045313;28;20226;-12
2022/08/27 03:23:13;;;;;;;3.53;1.42;;;;;;;;;;5045748;28;20234;-12
2022/08/27 03:25:42;;;;;;;7.13;2.33;;;;;;;;;;5051143;28;20261;-12
2022/08/27 03:28:09;;;;;;;3.35;1.67;;;;;;;;;;5049761;28;20655;-12
2022/08/27 03:30:50;;;;;;;4.00;1.73;;;;;;;;;;5049083;28;20619;-12
2022/08/27 03:33:18;;;;;;;4.82;1.88;;;;;;;;;;5044691;28;20223;-12
2022/08/27 03:35:46;;;;;;;4.85;2.13;;;;;;;;;;5048325;28;20230;-12
2022/08/27 03:38:19;;;;;;;4.32;1.75;;;;;;;;;;5050511;28;20237;-12
2022/08/27 03:40:46;;;;;;;3.33;1.65;;;;;;;;;;5050786;28;20226;-12
2022/08/27 03:43:14;;;;;;;4.13;1.90;;;;;;;;;;5049795;28;20238;-12
2022/08/27 03:45:42;;;;;;;2.75;1.90;;;;;;;;;;5051969;28;21032;-12
2022/08/27 03:48:28;;;;;;;4.20;2.15;;;;;;;;;;5050097;28;20226;-12
2022/08/27 03:50:56;;;;;;;6.10;2.55;;;;;;;;;;5044343;28;20246;-12
2022/08/27 03:53:24;;;;;;;6.28;2.30;;;;;;;;;;5045039;28;20239;-12
2022/08/27 03:55:52;;;;;;;4.47;1.90;;;;;;;;;;5044572;28;20238;-12
2022/08/27 03:58:19;;;;;;;5.82;2.42;;;;;;;;;;5049160;28;20237;-12
2022/08/27 04:00:47;;;;;;;3.63;1.92;;;;;;;;;;5049703;28;20708;-12
2022/08/27 04:03:14;;;;;;;3.33;1.90;;;;;;;;;;5050047;28;20233;-13
2022/08/27 04:05:42;;;;;;;5.10;2.25;;;;;;;;;;5050085;28;20233;-12
2022/08/27 04:08:12;;;;;;;5.35;2.20;;;;;;;;;;5047840;28;20230;-12
2022/08/27 04:10:40;;;;;;;5.07;2.45;;;;;;;;;;5049838;28;20324;-12
2022/08/27 04:13:08;;;;;;;5.68;2.17;;;;;;;;;;5049563;28;20230;-12
2022/08/27 04:15:35;;;;;;;6.38;2.30;;;;;;;;;;5050287;28;20233;-12
2022/08/27 04:18:07;;;;;;;5.25;2.30;;;;;;;;;;5044859;28;20232;-12
2022/08/27 04:20:34;;;;;;;4.70;1.98;;;;;;;;;;5048400;28;20234;-12
2022/08/27 04:23:02;;;;;;;4.03;2.15;;;;;;;;;;5045788;28;20234;-12
2022/08/27 04:25:30;;;;;;;6.20;2.20;;;;;;;;;;5049759;28;20230;-12
2022/08/27 04:27:58;;;;;;;4.80;2.00;;;;;;;;;;5047618;28;20959;-12
2022/08/27 04:30:26;;;;;;;4.85;2.22;;;;;;;;;;5049137;28;20249;-12
2022/08/27 04:32:53;;;;;;;4.35;1.85;;;;;;;;;;5049902;28;20337;-12
2022/08/27 04:35:20;;;;;;;4.20;2.05;;;;;;;;;;5049132;28;20226;-12
2022/08/27 04:37:48;;;;;;;4.18;2.00;;;;;;;;;;5048816;28;20235;-12
2022/08/27 04:40:15;;;;;;;3.33;1.77;;;;;;;;;;5047125;28;20226;-12
2022/08/27 04:42:43;;;;;;;5.68;2.50;;;;;;;;;;5052410;28;20280;-15
2022/08/27 04:45:12;;;;;;;4.82;1.90;;;;;;;;;;5046838;28;20237;-12
2022/08/27 04:47:39;;;;;;;4.60;2.10;;;;;;;;;;5050720;28;20237;-12
2022/08/27 04:50:06;;;;;;;6.10;2.20;;;;;;;;;;5052204;28;20293;-12
2022/08/27 04:52:34;;;;;;;5.53;2.15;;;;;;;;;;5050979;28;20250;-12
2022/08/27 04:55:08;;;;;;;4.43;2.10;;;;;;;;;;5051656;28;20300;-12
2022/08/27 04:57:36;;;;;;;6.57;1.98;;;;;;;;;;5052716;28;20240;-12
2022/08/27 05:00:05;;;;;;;5.20;2.22;;;;;;;;;;5050777;28;20282;-12
2022/08/27 05:02:34;;;;;;;3.17;2.00;;;;;;;;;;5049873;28;20230;-12
2022/08/27 05:05:01;;;;;;;5.15;2.25;;;;;;;;;;5052574;28;20230;-12
2022/08/27 05:07:29;;;;;;;6.18;1.95;;;;;;;;;;5052837;28;20234;-12
2022/08/27 05:09:56;;;;;;;4.93;2.25;;;;;;;;;;5051972;28;20246;-12
2022/08/27 05:12:24;;;;;;;4.45;2.00;;;;;;;;;;5049852;28;20237;-12
2022/08/27 05:14:51;;;;;;;3.83;2.25;;;;;;;;;;5051572;28;20705;-12
2022/08/27 05:17:18;;;;;;;4.78;2.08;;;;;;;;;;5052573;28;20234;-12
2022/08/27 05:19:48;;;;;;;3.47;2.10;;;;;;;;;;5050785;28;20231;-12
2022/08/27 05:22:15;;;;;;;9.13;1.90;;;;;;;;;;5051892;28;20248;-12
2022/08/27 05:24:42;;;;;;;4.43;2.15;;;;;;;;;;5049814;28;20230;-12
2022/08/27 05:27:16;;;;;;;4.75;2.08;;;;;;;;;;5050540;28;20210;-12
2022/08/27 05:29:44;;;;;;;3.47;2.17;;;;;;;;;;5050037;28;20246;-12
2022/08/27 05:32:11;;;;;;;6.07;2.47;;;;;;;;;;5051730;28;20275;-13
2022/08/27 05:34:39;;;;;;;2.45;1.63;;;;;;;;;;5047177;28;20227;-12
2022/08/27 05:37:07;;;;;;;4.75;2.03;;;;;;;;;;5051661;28;20241;-12
2022/08/27 05:39:35;;;;;;;5.60;2.42;;;;;;;;;;5052040;28;20234;-12
2022/08/27 05:42:02;;;;;;;6.93;2.22;;;;;;;;;;5052257;28;20687;-12
2022/08/27 05:44:30;;;;;;;4.85;1.98;;;;;;;;;;5047391;28;20230;-13
2022/08/27 05:47:12;;;;;;;4.25;1.88;;;;;;;;;;5048980;28;20279;-12
2022/08/27 05:49:40;;;;;;;6.30;2.90;;;;;;;;;;5049984;28;20779;-12
2022/08/27 05:52:09;;;;;;;4.65;2.03;;;;;;;;;;5051673;28;20237;-12
2022/08/27 05:54:36;;;;;;;2.67;1.90;;;;;;;;;;5045349;28;20234;-12
2022/08/27 05:57:04;;;;;;;3.47;2.00;;;;;;;;;;5052084;28;20234;-14
2022/08/27 06:02:17;;;;;;;7.18;2.45;;;;;;;;;;5050149;28;20236;-12
2022/08/27 06:04:45;;;;;;;4.18;2.60;;;;;;;;;;5051702;28;21159;-12
2022/08/27 06:07:14;;;;;;;4.38;2.10;;;;;;;;;;5051449;28;20273;-12
2022/08/27 06:09:42;;;;;;;7.32;2.15;;;;;;;;;;5050258;28;20230;-12
2022/08/27 06:12:09;;;;;;;4.50;2.00;;;;;;;;;;5049178;28;20241;-12
2022/08/27 06:14:37;;;;;;;4.30;2.17;;;;;;;;;;5049427;28;20775;-12
2022/08/27 06:17:05;;;;;;;5.45;2.33;;;;;;;;;;5051386;28;20241;-12
2022/08/27 06:19:33;;;;;;;4.03;2.08;;;;;;;;;;5050012;28;20289;-12
2022/08/27 06:22:01;;;;;;;3.50;1.80;;;;;;;;;;5048041;28;20248;-13
2022/08/27 06:24:38;;;;;;;4.35;1.85;;;;;;;;;;5048870;28;20353;-12
2022/08/27 06:27:06;;;;;;;4.30;2.15;;;;;;;;;;5051410;28;21002;-12
2022/08/27 06:29:33;;;;;;;5.47;2.17;;;;;;;;;;5049712;28;20274;-12
2022/08/27 06:32:01;;;;;;;5.68;2.05;;;;;;;;;;5049771;28;20241;-12
2022/08/27 06:34:28;;;;;;;3.40;1.83;;;;;;;;;;5051132;28;20232;-12
2022/08/27 06:36:56;;;;;;;4.75;2.17;;;;;;;;;;5050937;28;20674;-12
2022/08/27 06:39:23;;;;;;;4.75;2.67;;;;;;;;;;5050904;28;20241;-12
2022/08/27 06:41:52;;;;;;;5.07;2.13;;;;;;;;;;5050200;28;20234;-12
2022/08/27 06:44:19;;;;;;;7.63;2.80;;;;;;;;;;5051022;28;20624;-12
2022/08/27 06:46:47;;;;;;;4.78;1.95;;;;;;;;;;5050743;28;20719;-12
2022/08/27 06:49:14;;;;;;;5.38;2.60;;;;;;;;;;5044483;28;20890;-12
2022/08/27 06:51:43;;;;;;;4.50;2.22;;;;;;;;;;5050963;28;20244;-12
2022/08/27 06:54:11;;;;;;;3.30;2.03;;;;;;;;;;5048572;28;20238;-12
2022/08/27 06:56:39;;;;;;;3.88;1.80;;;;;;;;;;5047094;28;20244;-12
2022/08/27 06:59:08;;;;;;;4.55;2.08;;;;;;;;;;5048305;28;20233;-12
2022/08/27 07:01:38;;;;;;;8.15;2.03;;;;;;;;;;5048233;28;20782;-12
2022/08/27 07:04:06;;;;;;;6.78;2.03;;;;;;;;;;5048858;28;20298;-12
2022/08/27 07:06:34;;;;;;;6.70;2.55;;;;;;;;;;5047241;28;20234;-12
2022/08/27 07:09:01;;;;;;;4.18;1.65;;;;;;;;;;5049516;28;20226;-12
2022/08/27 07:11:30;;;;;;;6.57;1.80;;;;;;;;;;5050983;28;20238;-12
2022/08/27 07:13:58;;;;;;;5.78;2.28;;;;;;;;;;5049572;28;20242;-12
2022/08/27 07:16:27;;;;;;;8.80;2.00;;;;;;;;;;5049814;28;20230;-12
2022/08/27 07:18:55;;;;;;;6.45;1.70;;;;;;;;;;5050847;28;20241;-12
2022/08/27 07:21:22;;;;;;;4.50;2.10;;;;;;;;;;5046294;28;20238;-12
2022/08/27 07:23:50;;;;;;;5.47;2.30;;;;;;;;;;5049914;28;20286;-12
2022/08/27 07:26:18;;;;;;;3.53;1.60;;;;;;;;;;5049849;28;20226;-12
2022/08/27 07:28:46;;;;;;;3.03;1.50;;;;;;;;;;5049915;28;20233;-12
2022/08/27 07:31:15;;;;;;;4.20;1.77;;;;;;;;;;5050472;28;20245;-12
2022/08/27 07:33:46;;;;;;;6.50;2.10;;;;;;;;;;5048831;28;20297;-12
2022/08/27 07:36:19;;;;;;;5.28;1.50;;;;;;;;;;5050053;28;20328;-12
2022/08/27 07:38:46;;;;;;;11.45;1.77;;;;;;;;;;5049587;28;20253;-13
2022/08/27 07:41:25;;;;;;;6.97;1.60;;;;;;;;;;5048469;28;20318;-12
2022/08/27 07:46:43;;;;;;;6.70;1.92;;;;;;;;;;5047659;28;20226;-12
2022/08/27 07:49:16;;;;;;;6.72;1.58;;;;;;;;;;5048982;28;20226;-12
2022/08/27 07:51:44;;;;;;;7.47;1.60;;;;;;;;;;5047311;28;20277;-12
2022/08/27 07:54:11;;;;;;;5.60;1.88;;;;;;;;;;5049615;28;20238;-12
2022/08/27 07:56:38;;;;;;;4.65;1.58;;;;;;;;;;5049998;28;20249;-12
2022/08/27 07:59:06;;;;;;;10.45;1.60;;;;;;;;;;5046747;28;20235;-12
2022/08/27 08:01:33;;;;;;;8.45;1.90;;;;;;;;;;5050424;28;20226;-12
2022/08/27 08:04:01;;;;;;;5.07;1.30;;;;;;;;;;5049815;28;20265;-12
2022/08/27 08:06:29;;;;;;;5.32;1.23;;;;;;;;;;5050084;28;20249;-12
2022/08/27 08:08:58;;;;;;;10.10;1.60;;;;;;;;;;5048621;28;20971;-12
2022/08/27 08:11:25;;;;;;;14.75;1.73;;;;;;;;;;5042045;28;20734;-12
2022/08/27 08:13:53;;;;;;;15.25;2.50;;;;;;;;;;5049591;28;20230;-12
2022/08/27 08:16:20;;;;;;;14.73;1.48;;;;;;;;;;5048774;28;20740;-12
2022/08/27 08:18:47;;;;;;;10.18;1.92;;;;;;;;;;5043675;28;20233;-12
2022/08/27 08:21:15;;;;;;;7.82;1.30;;;;;;;;;;5049232;28;20260;-13
2022/08/27 08:23:44;;;;;;;8.70;1.45;;;;;;;;;;5049609;28;20229;-12
2022/08/27 08:26:11;;;;;;;5.63;1.50;;;;;;;;;;5051003;28;20234;-12
2022/08/27 08:28:39;;;;;;;5.32;1.35;;;;;;;;;;5045613;28;20230;-12
2022/08/27 08:31:06;;;;;;;6.25;1.45;;;;;;;;;;5050717;28;21018;-12
2022/08/27 08:33:34;;;;;;;4.95;1.48;;;;;;;;;;5049748;28;20234;-13
2022/08/27 08:36:02;;;;;;;2.97;1.13;;;;;;;;;;5046946;28;20989;-13
2022/08/27 08:38:29;;;;;;;4.55;1.10;;;;;;;;;;5050161;28;20237;-13
2022/08/27 08:40:58;;;;;;;4.05;1.10;;;;;;;;;;5049355;28;20226;-13
2022/08/27 08:43:27;;;;;;;3.88;1.30;;;;;;;;;;5046973;28;20265;-13
2022/08/27 08:45:54;;;;;;;2.13;1.08;;;;;;;;;;5047216;28;20234;-13
2022/08/27 08:48:22;;;;;;;2.92;1.27;;;;;;;;;;5053878;28;20238;-13
2022/08/27 08:50:51;;;;;;;3.95;1.90;;;;;;;;;;5056624;28;20717;-13
2022/08/27 08:53:19;;;;;;;4.38;1.63;;;;;;;;;;5055665;28;20237;-13
2022/08/27 08:55:47;;;;;;;4.90;1.20;;;;;;;;;;5049545;28;20226;-13
2022/08/27 08:58:19;;;;;;;2.22;1.20;;;;;;;;;;5044477;28;20234;-13
2022/08/27 09:00:47;;;;;;;5.22;1.33;;;;;;;;;;5049153;28;20245;-13
2022/08/27 09:03:15;;;;;;;9.55;1.70;;;;;;;;;;5048560;28;20245;-13
2022/08/27 09:05:43;;;;;;;3.13;1.00;;;;;;;;;;5036163;28;20237;-13
2022/08/27 09:08:12;;;;;;;3.95;1.10;;;;;;;;;;5046034;28;20234;-13
2022/08/27 09:10:59;;;;;;;4.40;1.35;;;;;;;;;;5047700;28;20909;-13
2022/08/27 09:13:29;;;;;;;3.05;1.00;;;;;;;;;;5045505;28;20245;-13
2022/08/27 09:15:58;;;;;;;3.25;1.23;;;;;;;;;;5046048;28;20237;-13
2022/08/27 09:18:25;;;;;;;4.53;1.52;;;;;;;;;;5048439;28;20701;-13
2022/08/27 09:20:55;;;;;;;8.65;1.55;;;;;;;;;;5049025;28;20686;-13
2022/08/27 09:23:25;;;;;;;4.82;1.40;;;;;;;;;;5047797;28;21120;-13
2022/08/27 09:25:53;;;;;;;5.18;1.30;;;;;;;;;;5039507;28;20230;-13
2022/08/27 09:31:07;;;;;;;6.93;1.80;;;;;;;;;;5052353;28;20234;-13
2022/08/27 09:33:36;;;;;;;6.28;1.45;;;;;;;;;;5051913;28;20684;-13
2022/08/27 09:36:22;;;;;;;3.25;1.40;;;;;;;;;;5052609;28;21046;-13
2022/08/27 09:38:51;;;;;;;7.32;1.38;;;;;;;;;;5051636;28;20290;-12
2022/08/27 09:41:25;;;;;;;7.43;1.60;;;;;;;;;;5050442;28;20232;-13
2022/08/27 09:43:56;;;;;;;5.85;1.50;;;;;;;;;;5050028;28;20237;-13
2022/08/27 09:46:25;;;;;;;4.47;1.38;;;;;;;;;;5051721;28;20229;-13
2022/08/27 09:48:53;;;;;;;5.40;1.50;;;;;;;;;;5051634;28;20233;-13
2022/08/27 09:51:22;;;;;;;6.45;1.52;;;;;;;;;;5051690;28;20241;-13
2022/08/27 09:53:50;;;;;;;4.07;1.30;;;;;;;;;;5046282;28;20246;-13
2022/08/27 09:56:22;;;;;;;3.50;1.20;;;;;;;;;;5049697;28;20728;-13
2022/08/27 09:58:50;;;;;;;4.35;1.00;;;;;;;;;;5040476;28;20327;-13
2022/08/27 10:01:18;;;;;;;3.97;1.00;;;;;;;;;;5047499;28;20233;-12
2022/08/27 10:03:46;;;;;;;5.07;1.23;;;;;;;;;;5046433;28;20864;-13
2022/08/27 10:06:14;;;;;;;5.32;1.10;;;;;;;;;;5047341;28;20230;-13
2022/08/27 10:08:42;;;;;;;2.65;1.25;;;;;;;;;;5049730;28;20238;-13
2022/08/27 10:11:10;;;;;;;4.35;1.15;;;;;;;;;;5049632;28;20238;-13
2022/08/27 10:13:39;;;;;;;2.63;1.17;;;;;;;;;;5048455;28;20250;-13
2022/08/27 10:16:09;;;;;;;3.13;1.50;;;;;;;;;;5046872;28;20954;-13
2022/08/27 10:18:40;;;;;;;5.07;1.33;;;;;;;;;;5049464;28;20264;-13
2022/08/27 10:21:11;;;;;;;3.28;1.20;;;;;;;;;;5045820;28;20320;-13
2022/08/27 10:23:42;;;;;;;2.22;1.15;;;;;;;;;;5048458;28;20233;-13
2022/08/27 10:26:10;;;;;;;4.93;1.25;;;;;;;;;;5050032;28;20245;-13
2022/08/27 10:28:40;;;;;;;2.78;1.08;;;;;;;;;;5049920;28;20693;-13
2022/08/27 10:31:17;;;;;;;2.80;1.08;;;;;;;;;;5049809;28;20242;-12
2022/08/27 10:33:48;;;;;;;3.40;0.98;;;;;;;;;;5048476;28;20244;-12
2022/08/27 10:36:19;;;;;;;4.25;0.90;;;;;;;;;;5049655;28;20236;-12
2022/08/27 10:38:47;;;;;;;3.33;1.33;;;;;;;;;;5048159;28;20231;-12
2022/08/27 10:41:15;;;;;;;3.65;1.25;;;;;;;;;;5050037;28;21035;-12
2022/08/27 10:43:51;;;;;;;2.75;1.02;;;;;;;;;;5048928;28;20240;-12
2022/08/27 10:46:25;;;;;;;3.17;1.23;;;;;;;;;;5050452;28;20611;-14
2022/08/27 10:48:55;;;;;;;3.20;1.20;;;;;;;;;;5044668;28;20256;-12
2022/08/27 10:51:24;;;;;;;1.88;1.05;;;;;;;;;;5050470;28;20235;-12
2022/08/27 10:54:06;;;;;;;8.90;1.30;;;;;;;;;;5044638;28;20991;-12
2022/08/27 10:56:35;;;;;;;6.13;1.45;;;;;;;;;;5049648;28;20285;-12
2022/08/27 10:59:05;;;;;;;9.88;1.40;;;;;;;;;;5045042;28;20245;-12
2022/08/27 11:01:37;;;;;;;6.70;2.00;;;;;;;;;;5049815;28;20725;-12
2022/08/27 11:04:05;;;;;;;7.18;1.60;;;;;;;;;;5049901;28;20234;-12
2022/08/27 11:06:35;;;;;;;7.03;1.20;;;;;;;;;;5048905;28;20230;-12
2022/08/27 11:09:03;;;;;;;4.22;1.27;;;;;;;;;;5041878;28;20234;-12
2022/08/27 11:11:35;;;;;;;1.85;1.10;;;;;;;;;;5047852;28;20241;-12
2022/08/27 11:14:24;;;;;;;6.95;1.38;;;;;;;;;;5049776;28;20277;-12
2022/08/27 11:16:52;;;;;;;2.25;1.13;;;;;;;;;;5049076;28;20612;-12
2022/08/27 11:19:22;;;;;;;5.10;1.40;;;;;;;;;;5049406;28;20252;-12
2022/08/27 11:22:01;;;;;;;4.38;1.40;;;;;;;;;;5049484;28;20705;-12
2022/08/27 11:24:31;;;;;;;3.78;1.20;;;;;;;;;;5048572;28;20238;-12
2022/08/27 11:27:02;;;;;;;3.55;1.30;;;;;;;;;;5049322;28;20759;-12
2022/08/27 11:29:31;;;;;;;11.95;1.55;;;;;;;;;;5045999;28;20234;-12
2022/08/27 11:32:00;;;;;;;8.75;1.50;;;;;;;;;;5048248;28;20234;-13
2022/08/27 11:34:29;;;;;;;5.78;1.50;;;;;;;;;;5046381;28;20249;-12
2022/08/27 11:37:05;;;;;;;3.90;1.30;;;;;;;;;;5042474;28;20238;-13
2022/08/27 11:39:44;;;;;;;9.93;1.60;;;;;;;;;;5048308;28;20233;-12
2022/08/27 11:42:19;;;;;;;8.43;1.30;;;;;;;;;;5049412;28;20229;-12
2022/08/27 11:44:47;;;;;;;5.50;1.77;;;;;;;;;;5046222;28;20237;-12
2022/08/27 11:47:15;;;;;;;5.82;1.40;;;;;;;;;;5043108;28;20238;-12
2022/08/27 11:49:43;;;;;;;5.45;1.33;;;;;;;;;;5033880;28;20730;-12
2022/08/27 11:52:19;;;;;;;5.15;1.40;;;;;;;;;;5039028;28;20244;-12
2022/08/27 11:54:47;;;;;;;3.10;1.50;;;;;;;;;;5043108;28;20245;-13
2022/08/27 11:57:15;;;;;;;4.60;1.42;;;;;;;;;;5045037;28;20720;-13
2022/08/27 11:59:43;;;;;;;2.05;1.20;;;;;;;;;;5048706;28;20234;-13
2022/08/27 12:02:11;;;;;;;4.60;1.27;;;;;;;;;;5044018;28;20278;-13
2022/08/27 12:04:39;;;;;;;4.22;1.63;;;;;;;;;;5039545;28;20760;-13
2022/08/27 12:07:08;;;;;;;3.38;1.23;;;;;;;;;;5048681;28;20238;-13
2022/08/27 12:09:46;;;;;;;3.72;1.30;;;;;;;;;;5048250;28;20226;-13
2022/08/27 12:12:14;;;;;;;5.13;1.20;;;;;;;;;;5047649;28;20255;-13
2022/08/27 12:14:43;;;;;;;2.22;1.05;;;;;;;;;;5041093;28;20289;-13
2022/08/27 12:17:12;;;;;;;2.85;1.00;;;;;;;;;;5048962;28;20237;-13
2022/08/27 12:19:45;;;;;;;4.22;1.13;;;;;;;;;;5049447;28;20380;-13
2022/08/27 12:22:15;;;;;;;4.65;1.33;;;;;;;;;;5047344;28;20739;-13
2022/08/27 12:24:52;;;;;;;5.13;1.77;;;;;;;;;;5039752;28;20237;-12
2022/08/27 12:27:33;;;;;;;5.72;1.33;;;;;;;;;;5048759;28;20240;-13
2022/08/27 12:30:01;;;;;;;4.30;1.17;;;;;;;;;;5048295;28;20229;-13
2022/08/27 12:32:29;;;;;;;2.38;1.05;;;;;;;;;;5042436;28;20230;-13
2022/08/27 12:35:02;;;;;;;3.55;1.13;;;;;;;;;;5047559;28;20242;-13
2022/08/27 12:37:31;;;;;;;2.70;0.98;;;;;;;;;;5049092;28;20614;-13
2022/08/27 12:40:00;;;;;;;5.55;0.95;;;;;;;;;;5046142;28;20253;-13
2022/08/27 12:42:27;;;;;;;4.13;1.40;;;;;;;;;;5047827;28;20230;-13
2022/08/27 12:44:55;;;;;;;3.75;1.30;;;;;;;;;;5046891;28;20245;-14
2022/08/27 12:47:22;;;;;;;4.15;1.08;;;;;;;;;;5047039;28;20241;-13
2022/08/27 12:49:51;;;;;;;2.45;1.20;;;;;;;;;;5048076;28;20236;-13
2022/08/27 12:52:31;;;;;;;8.10;1.40;;;;;;;;;;5040528;28;20235;-13
2022/08/27 12:55:04;;;;;;;5.72;1.20;;;;;;;;;;5037389;28;20249;-14
2022/08/27 12:57:32;;;;;;;5.20;1.25;;;;;;;;;;5048035;28;20238;-13
2022/08/27 13:00:03;;;;;;;6.60;1.33;;;;;;;;;;5046677;28;20238;-13
2022/08/27 13:02:39;;;;;;;8.95;1.60;;;;;;;;;;5036431;28;20234;-13
2022/08/27 13:05:06;;;;;;;8.05;1.75;;;;;;;;;;5047058;28;20240;-13
2022/08/27 13:07:39;;;;;;;6.07;1.38;;;;;;;;;;5051169;28;21081;-13
2022/08/27 13:10:12;;;;;;;6.50;1.67;;;;;;;;;;5049130;28;20237;-13
2022/08/27 13:12:40;;;;;;;6.32;1.50;;;;;;;;;;5052496;28;20260;-13
2022/08/27 13:15:09;;;;;;;5.32;1.38;;;;;;;;;;5050958;28;20245;-13
2022/08/27 13:17:41;;;;;;;3.80;1.52;;;;;;;;;;5037277;28;20228;-13
2022/08/27 13:20:13;;;;;;;10.55;1.23;;;;;;;;;;5046660;28;20825;-13
2022/08/27 13:22:42;;;;;;;8.13;1.42;;;;;;;;;;5050144;28;20242;-13
2022/08/27 13:25:20;;;;;;;6.50;1.60;;;;;;;;;;5051662;28;20241;-13
2022/08/27 13:27:51;;;;;;;10.57;1.45;;;;;;;;;;5051477;28;20234;-13
2022/08/27 13:30:18;;;;;;;9.70;2.03;;;;;;;;;;5049125;28;20997;-12
2022/08/27 13:33:02;;;;;;;7.15;1.38;;;;;;;;;;5038815;28;20793;-13
2022/08/27 13:35:31;;;;;;;13.70;1.60;;;;;;;;;;5052047;28;20238;-13
2022/08/27 13:37:58;;;;;;;4.95;1.15;;;;;;;;;;5052170;28;20236;-13
2022/08/27 13:40:29;;;;;;;6.03;1.58;;;;;;;;;;5044828;28;20234;-13
2022/08/27 13:42:57;;;;;;;6.18;1.40;;;;;;;;;;5052053;28;20270;-13
2022/08/27 13:45:25;;;;;;;5.85;1.40;;;;;;;;;;5042894;28;20280;-13
2022/08/27 13:47:53;;;;;;;7.95;1.40;;;;;;;;;;5045439;28;20226;-13
2022/08/27 13:50:22;;;;;;;6.57;1.38;;;;;;;;;;5051769;28;20228;-13
2022/08/27 13:55:40;;;;;;;8.82;1.70;;;;;;;;;;5043357;28;20242;-13
2022/08/27 13:58:13;;;;;;;7.22;1.65;;;;;;;;;;5051610;28;20693;-13
2022/08/27 14:00:41;;;;;;;15.13;2.15;;;;;;;;;;5046552;28;20226;-13
2022/08/27 14:03:22;;;;;;;13.23;1.65;;;;;;;;;;5050671;28;20231;-13
2022/08/27 14:05:50;;;;;;;10.05;1.98;;;;;;;;;;5044375;28;20716;-13
2022/08/27 14:08:18;;;;;;;9.13;1.60;;;;;;;;;;5050974;28;20292;-13
2022/08/27 14:10:47;;;;;;;8.35;1.60;;;;;;;;;;5051685;28;20230;-13
2022/08/27 14:13:20;;;;;;;8.32;1.38;;;;;;;;;;5050158;28;20250;-13
2022/08/27 14:15:47;;;;;;;8.55;1.73;;;;;;;;;;5041452;28;20249;-13
2022/08/27 14:18:21;;;;;;;4.65;1.27;;;;;;;;;;5051104;28;20245;-13
2022/08/27 14:21:08;;;;;;;13.00;2.35;;;;;;;;;;5049991;28;20657;-13
2022/08/27 14:23:36;;;;;;;11.73;1.98;;;;;;;;;;5047532;28;20235;-12
2022/08/27 14:26:04;;;;;;;12.43;2.20;;;;;;;;;;5043193;28;20234;-13
2022/08/27 14:28:32;;;;;;;16.90;2.10;;;;;;;;;;5047711;28;20780;-13
2022/08/27 14:30:59;;;;;;;37.60;2.50;;;;;;;;;;5049410;28;20728;-14
2022/08/27 14:33:27;;;;;;;16.83;2.10;;;;;;;;;;5047107;28;20245;-13
2022/08/27 14:35:54;;;;;;;9.85;1.90;;;;;;;;;;5043476;28;20242;-13
2022/08/27 14:38:22;;;;;;;11.80;1.98;;;;;;;;;;5035184;28;20230;-13
2022/08/27 14:40:50;;;;;;;13.18;1.83;;;;;;;;;;5049710;28;20241;-13
2022/08/27 14:43:18;;;;;;;10.68;1.77;;;;;;;;;;5048134;28;20234;-13
2022/08/27 14:45:46;;;;;;;7.88;2.03;;;;;;;;;;5047372;28;20869;-13
2022/08/27 14:48:15;;;;;;;7.97;1.35;;;;;;;;;;5044675;28;20333;-13
2022/08/27 14:50:45;;;;;;;17.67;1.98;;;;;;;;;;5041057;28;20256;-14
2022/08/27 14:53:13;;;;;;;10.65;2.00;;;;;;;;;;5041649;28;20554;-13
2022/08/27 14:55:40;;;;;;;9.18;1.90;;;;;;;;;;5042531;28;22089;-14
2022/08/27 14:58:13;;;;;;;9.25;2.03;;;;;;;;;;5048113;28;20453;-13
2022/08/27 15:00:42;;;;;;;9.75;1.65;;;;;;;;;;5044815;28;20934;-13
2022/08/27 15:03:10;;;;;;;9.07;1.70;;;;;;;;;;5048415;28;20230;-13
2022/08/27 15:05:37;;;;;;;7.97;1.60;;;;;;;;;;5043950;28;20226;-13
2022/08/27 15:08:06;;;;;;;5.40;1.35;;;;;;;;;;5045944;28;20233;-13
2022/08/27 15:10:39;;;;;;;8.75;1.85;;;;;;;;;;5042460;28;20245;-13